createdAt,value
2022-09-12T00:01:19.958Z,101341.22
2022-09-12T00:03:47.789Z,101333.28
2022-09-12T00:06:25.689Z,101328.91
2022-09-12T00:08:59.907Z,101334.53
2022-09-12T00:11:27.173Z,101326.91
2022-09-12T00:14:00.201Z,101324.97
2022-09-12T00:16:30.306Z,101331.13
2022-09-12T00:18:57.452Z,101321.34
2022-09-12T00:21:24.243Z,101327.50
2022-09-12T00:23:51.976Z,101327.44
2022-09-12T00:26:20.471Z,101327.66
2022-09-12T00:28:48.192Z,101321.38
2022-09-12T00:31:19.969Z,101324.34
2022-09-12T00:33:47.353Z,101318.59
2022-09-12T00:36:19.117Z,101319.09
2022-09-12T00:38:48.865Z,101331.44
2022-09-12T00:41:36.930Z,101321.41
2022-09-12T00:44:24.119Z,101325.69
2022-09-12T00:47:13.205Z,101324.81
2022-09-12T00:49:42.977Z,101330.16
2022-09-12T00:52:17.952Z,101318.25
2022-09-12T00:55:00.032Z,101331.38
2022-09-12T00:57:33.501Z,101326.47
2022-09-12T01:00:16.021Z,101313.19
2022-09-12T01:02:49.326Z,101320.63
2022-09-12T01:05:16.660Z,101322.28
2022-09-12T01:07:44.686Z,101328.72
2022-09-12T01:10:12.025Z,101325.13
2022-09-12T01:12:41.504Z,101317.88
2022-09-12T01:15:09.247Z,101318.38
2022-09-12T01:18:25.365Z,101316.16
2022-09-12T01:21:21.547Z,101320.69
2022-09-12T01:24:19.263Z,101316.84
2022-09-12T01:27:05.533Z,101318.34
2022-09-12T01:29:56.787Z,101328.56
2022-09-12T01:33:22.167Z,101319.09
2022-09-12T01:36:34.524Z,101331.97
2022-09-12T01:39:17.744Z,101328.16
2022-09-12T01:42:10.179Z,101323.84
2022-09-12T01:44:44.765Z,101322.44
2022-09-12T01:47:27.841Z,101316.81
2022-09-12T01:50:18.875Z,101319.75
2022-09-12T01:52:58.981Z,101320.00
2022-09-12T01:55:32.819Z,101312.44
2022-09-12T01:58:05.501Z,101315.13
2022-09-12T02:00:38.020Z,101313.47
2022-09-12T02:03:14.841Z,101304.78
2022-09-12T02:06:02.146Z,101316.34
2022-09-12T02:08:35.719Z,101312.03
2022-09-12T02:11:12.016Z,101320.91
2022-09-12T02:13:50.273Z,101320.91
2022-09-12T02:16:27.226Z,101324.69
2022-09-12T02:19:03.837Z,101321.66
2022-09-12T02:21:33.784Z,101325.16
2022-09-12T02:24:04.932Z,101323.53
2022-09-12T02:26:36.879Z,101322.16
2022-09-12T02:29:04.427Z,101325.34
2022-09-12T02:31:42.037Z,101321.34
2022-09-12T02:34:59.599Z,101309.19
2022-09-12T02:38:11.361Z,101314.81
2022-09-12T02:40:38.671Z,101308.06
2022-09-12T02:43:06.968Z,101311.06
2022-09-12T02:45:35.270Z,101320.78
2022-09-12T02:48:23.959Z,101314.81
2022-09-12T02:50:51.223Z,101325.66
2022-09-12T02:53:18.957Z,101318.72
2022-09-12T02:55:46.081Z,101314.16
2022-09-12T02:58:19.069Z,101308.84
2022-09-12T03:01:34.656Z,101315.38
2022-09-12T03:04:33.037Z,101330.22
2022-09-12T03:07:54.121Z,101326.78
2022-09-12T03:10:32.666Z,101326.28
2022-09-12T03:13:48.681Z,101323.66
2022-09-12T03:16:30.643Z,101321.78
2022-09-12T03:19:33.782Z,101304.56
2022-09-12T03:22:07.924Z,101317.78
2022-09-12T03:25:10.635Z,101316.72
2022-09-12T03:27:44.264Z,101316.97
2022-09-12T03:30:12.587Z,101317.53
2022-09-12T03:32:52.537Z,101312.38
2022-09-12T03:35:26.457Z,101312.63
2022-09-12T03:37:53.542Z,101310.44
2022-09-12T03:40:20.714Z,101309.06
2022-09-12T03:42:47.819Z,101315.50
2022-09-12T03:45:16.328Z,101315.25
2022-09-12T03:47:43.235Z,101320.66
2022-09-12T03:50:10.213Z,101315.44
2022-09-12T03:52:37.877Z,101313.56
2022-09-12T03:55:05.592Z,101318.38
2022-09-12T03:57:32.393Z,101315.38
2022-09-12T03:59:59.434Z,101321.31
2022-09-12T04:02:26.284Z,101314.56
2022-09-12T04:04:53.237Z,101320.66
2022-09-12T04:07:20.355Z,101325.50
2022-09-12T04:09:47.410Z,101330.06
2022-09-12T04:12:14.469Z,101331.38
2022-09-12T04:14:41.383Z,101323.47
2022-09-12T04:17:08.580Z,101329.91
2022-09-12T04:19:35.629Z,101321.75
2022-09-12T04:22:02.480Z,101331.38
2022-09-12T04:24:29.383Z,101327.63
2022-09-12T04:26:56.325Z,101321.09
2022-09-12T04:29:23.262Z,101327.31
2022-09-12T04:31:50.417Z,101325.44
2022-09-12T04:34:18.288Z,101337.25
2022-09-12T04:36:45.342Z,101321.84
2022-09-12T04:39:12.580Z,101322.41
2022-09-12T04:41:41.917Z,101318.34
2022-09-12T04:44:12.620Z,101309.66
2022-09-12T04:46:44.811Z,101326.63
2022-09-12T04:49:13.996Z,101322.91
2022-09-12T04:51:42.399Z,101331.78
2022-09-12T04:54:19.335Z,101337.16
2022-09-12T04:56:49.185Z,101327.44
2022-09-12T04:59:18.159Z,101338.00
2022-09-12T05:01:45.745Z,101332.59
2022-09-12T05:04:13.707Z,101337.75
2022-09-12T05:06:41.958Z,101335.28
2022-09-12T05:09:14.218Z,101329.66
2022-09-12T05:12:03.793Z,101327.78
2022-09-12T05:14:32.696Z,101327.53
2022-09-12T05:17:01.428Z,101334.56
2022-09-12T05:19:30.160Z,101331.38
2022-09-12T05:21:57.152Z,101334.63
2022-09-12T05:24:24.836Z,101336.75
2022-09-12T05:26:53.961Z,101330.88
2022-09-12T05:29:20.772Z,101339.84
2022-09-12T05:31:50.217Z,101339.03
2022-09-12T05:34:17.097Z,101339.94
2022-09-12T05:36:44.099Z,101332.19
2022-09-12T05:39:11.170Z,101347.69
2022-09-12T05:41:38.219Z,101342.03
2022-09-12T05:44:10.756Z,101346.94
2022-09-12T05:46:41.256Z,101362.66
2022-09-12T05:49:11.208Z,101363.81
2022-09-12T05:51:42.160Z,101359.56
2022-09-12T05:54:12.039Z,101358.56
2022-09-12T05:56:42.405Z,101364.59
2022-09-12T05:59:21.947Z,101360.66
2022-09-12T06:01:49.118Z,101365.06
2022-09-12T06:04:17.253Z,101359.75
2022-09-12T06:06:45.891Z,101357.13
2022-09-12T06:09:17.377Z,101367.00
2022-09-12T06:11:45.739Z,101367.63
2022-09-12T06:14:16.110Z,101360.19
2022-09-12T06:16:43.522Z,101354.03
2022-09-12T06:19:20.699Z,101356.53
2022-09-12T06:21:51.552Z,101368.25
2022-09-12T06:27:11.293Z,101374.13
2022-09-12T06:29:38.120Z,101369.91
2022-09-12T06:32:07.285Z,101370.84
2022-09-12T06:34:34.323Z,101368.25
2022-09-12T06:37:01.458Z,101380.75
2022-09-12T06:39:28.427Z,101366.03
2022-09-12T06:41:55.368Z,101379.34
2022-09-12T06:44:33.581Z,101382.44
2022-09-12T06:47:00.494Z,101385.22
2022-09-12T06:49:27.417Z,101383.13
2022-09-12T06:51:54.282Z,101381.91
2022-09-12T06:54:21.317Z,101390.13
2022-09-12T06:56:48.506Z,101380.19
2022-09-12T06:59:15.371Z,101376.78
2022-09-12T07:01:42.518Z,101381.75
2022-09-12T07:04:10.511Z,101375.63
2022-09-12T07:06:44.306Z,101369.72
2022-09-12T07:12:08.276Z,101363.06
2022-09-12T07:14:38.665Z,101362.53
2022-09-12T07:17:05.910Z,101369.59
2022-09-12T07:19:33.146Z,101364.97
2022-09-12T07:21:59.982Z,101356.50
2022-09-12T07:24:27.041Z,101359.72
2022-09-12T07:26:54.131Z,101347.66
2022-09-12T07:29:37.648Z,101352.09
2022-09-12T07:32:06.253Z,101364.06
2022-09-12T07:34:33.703Z,101361.41
2022-09-12T07:37:00.685Z,101357.06
2022-09-12T07:39:27.737Z,101345.06
2022-09-12T07:41:54.825Z,101354.13
2022-09-12T07:44:23.143Z,101348.78
2022-09-12T07:46:50.652Z,101340.28
2022-09-12T07:49:17.681Z,101341.06
2022-09-12T07:51:50.199Z,101340.19
2022-09-12T07:54:17.720Z,101336.81
2022-09-12T07:56:46.309Z,101337.88
2022-09-12T07:59:30.242Z,101342.72
2022-09-12T08:02:04.770Z,101339.06
2022-09-12T08:04:32.289Z,101341.97
2022-09-12T08:06:59.371Z,101333.97
2022-09-12T08:09:26.309Z,101332.47
2022-09-12T08:11:53.361Z,101331.09
2022-09-12T08:14:21.234Z,101324.34
2022-09-12T08:16:48.262Z,101330.16
2022-09-12T08:19:15.140Z,101332.41
2022-09-12T08:21:42.552Z,101330.16
2022-09-12T08:24:12.708Z,101322.56
2022-09-12T08:26:39.717Z,101321.63
2022-09-12T08:29:06.562Z,101332.75
2022-09-12T08:31:37.098Z,101324.31
2022-09-12T08:34:05.888Z,101321.41
2022-09-12T08:36:33.235Z,101330.19
2022-09-12T08:39:04.597Z,101325.56
2022-09-12T08:41:41.461Z,101331.78
2022-09-12T08:44:15.553Z,101329.09
2022-09-12T08:47:14.535Z,101324.09
2022-09-12T08:50:03.102Z,101318.59
2022-09-12T08:52:57.020Z,101310.81
2022-09-12T08:55:53.689Z,101307.75
2022-09-12T08:58:24.404Z,101312.53
2022-09-12T09:01:33.421Z,101305.38
2022-09-12T09:04:31.447Z,101295.84
2022-09-12T09:07:37.175Z,101293.97
2022-09-12T09:10:25.485Z,101298.03
2022-09-12T09:13:39.023Z,101298.47
2022-09-12T09:16:30.880Z,101289.03
2022-09-12T09:19:01.612Z,101291.13
2022-09-12T09:21:51.636Z,101289.97
2022-09-12T09:24:25.397Z,101288.53
2022-09-12T09:27:36.866Z,101296.59
2022-09-12T09:29:59.645Z,101299.72
2022-09-12T09:32:41.109Z,101284.56
2022-09-12T09:35:48.846Z,101277.97
2022-09-12T09:38:35.303Z,101284.97
2022-09-12T09:42:04.823Z,101275.41
2022-09-12T09:44:32.282Z,101280.97
2022-09-12T09:47:00.382Z,101263.06
2022-09-12T09:49:35.035Z,101263.97
2022-09-12T09:52:03.021Z,101255.28
2022-09-12T09:54:41.592Z,101252.66
2022-09-12T09:57:36.445Z,101254.06
2022-09-12T10:00:27.700Z,101259.91
2022-09-12T10:03:13.144Z,101257.66
2022-09-12T10:05:49.324Z,101268.28
2022-09-12T10:08:27.490Z,101263.09
2022-09-12T10:11:07.022Z,101265.75
2022-09-12T10:13:44.337Z,101264.84
2022-09-12T10:16:34.723Z,101258.13
2022-09-12T10:19:04.019Z,101257.72
2022-09-12T10:21:48.326Z,101238.41
2022-09-12T10:24:22.739Z,101238.25
2022-09-12T10:27:06.176Z,101236.94
2022-09-12T10:29:40.564Z,101229.69
2022-09-12T10:32:09.257Z,101240.22
2022-09-12T10:34:41.819Z,101229.75
2022-09-12T10:37:18.165Z,101218.66
2022-09-12T10:39:53.799Z,101219.09
2022-09-12T10:42:42.497Z,101225.03
2022-09-12T10:45:38.863Z,101222.66
2022-09-12T10:48:27.586Z,101215.56
2022-09-12T10:50:54.629Z,101204.53
2022-09-12T10:53:24.025Z,101206.59
2022-09-12T10:56:09.604Z,101200.28
2022-09-12T10:59:07.220Z,101202.88
2022-09-12T11:01:44.333Z,101193.28
2022-09-12T11:04:49.956Z,101196.94
2022-09-12T11:07:48.029Z,101193.94
2022-09-12T11:11:34.734Z,101186.03
2022-09-12T11:14:07.240Z,101199.63
2022-09-12T11:16:45.780Z,101197.22
2022-09-12T11:19:22.041Z,101199.25
2022-09-12T11:22:24.760Z,101196.06
2022-09-12T11:25:10.681Z,101197.63
2022-09-12T11:28:13.191Z,101195.63
2022-09-12T11:31:01.975Z,101199.59
2022-09-12T11:33:56.908Z,101200.03
2022-09-12T11:37:16.171Z,101199.47
2022-09-12T11:39:51.313Z,101195.66
2022-09-12T11:42:37.174Z,101200.66
2022-09-12T11:45:20.169Z,101186.84
2022-09-12T11:47:53.981Z,101186.94
2022-09-12T11:50:27.856Z,101172.78
2022-09-12T11:53:06.750Z,101183.88
2022-09-12T11:55:52.766Z,101185.78
2022-09-12T11:58:25.814Z,101179.66
2022-09-12T12:01:01.989Z,101185.38
2022-09-12T12:03:43.780Z,101175.16
2022-09-12T12:06:44.142Z,101163.94
2022-09-12T12:09:12.757Z,101161.28
2022-09-12T12:11:47.829Z,101159.91
2022-09-12T12:14:29.055Z,101160.16
2022-09-12T12:16:56.965Z,101153.38
2022-09-12T12:20:06.516Z,101149.44
2022-09-12T12:22:36.016Z,101154.41
2022-09-12T12:28:50.368Z,101146.50
2022-09-12T12:31:18.724Z,101136.41
2022-09-12T12:33:45.542Z,101141.53
2022-09-12T12:36:40.460Z,101131.66
2022-09-12T12:39:33.293Z,101140.25
2022-09-12T12:42:01.714Z,101138.19
2022-09-12T12:44:51.292Z,101136.88
2022-09-12T12:47:29.825Z,101147.28
2022-09-12T12:50:06.399Z,101151.97
2022-09-12T12:52:49.723Z,101154.28
2022-09-12T12:55:53.017Z,101149.50
2022-09-12T12:58:37.728Z,101149.91
2022-09-12T13:01:18.913Z,101143.97
2022-09-12T13:04:04.780Z,101140.44
2022-09-12T13:06:39.990Z,101134.50
2022-09-12T13:09:24.848Z,101150.91
2022-09-12T13:12:09.512Z,101147.34
2022-09-12T13:14:51.740Z,101152.13
2022-09-12T13:17:40.254Z,101148.06
2022-09-12T13:20:28.295Z,101154.94
2022-09-12T13:22:57.078Z,101152.91
2022-09-12T13:25:36.620Z,101157.41
2022-09-12T13:28:12.485Z,101156.75
2022-09-12T13:30:42.654Z,101147.75
2022-09-12T13:33:26.925Z,101139.22
2022-09-12T13:36:15.638Z,101134.16
2022-09-12T13:39:03.513Z,101144.59
2022-09-12T13:42:03.351Z,101147.59
2022-09-12T13:44:32.861Z,101141.63
2022-09-12T13:47:01.623Z,101147.38
2022-09-12T13:49:37.406Z,101121.59
2022-09-12T13:52:16.734Z,101143.84
2022-09-12T13:54:46.439Z,101138.06
2022-09-12T13:57:43.816Z,101131.03
2022-09-12T14:03:50.830Z,101138.19
2022-09-12T14:06:18.885Z,101123.47
2022-09-12T14:08:48.178Z,101124.78
2022-09-12T14:11:27.530Z,101128.00
2022-09-12T14:13:56.134Z,101137.66
2022-09-12T14:16:27.347Z,101127.69
2022-09-12T14:18:54.501Z,101124.78
2022-09-12T14:21:35.982Z,101129.25
2022-09-12T14:24:06.882Z,101135.75
2022-09-12T14:26:39.053Z,101132.38
2022-09-12T14:29:07.851Z,101135.63
2022-09-12T14:31:38.325Z,101131.09
2022-09-12T14:34:19.874Z,101133.47
2022-09-12T14:36:49.882Z,101128.19
2022-09-12T14:39:38.071Z,101127.66
2022-09-12T14:42:16.718Z,101129.63
2022-09-12T14:44:58.486Z,101127.78
2022-09-12T14:47:28.735Z,101130.06
2022-09-12T14:49:55.811Z,101135.97
2022-09-12T14:52:35.168Z,101129.00
2022-09-12T14:55:34.424Z,101130.16
2022-09-12T14:58:26.791Z,101128.56
2022-09-12T15:00:54.698Z,101130.00
2022-09-12T15:03:32.584Z,101121.97
2022-09-12T15:06:02.682Z,101125.66
2022-09-12T15:08:30.979Z,101132.97
2022-09-12T15:10:58.657Z,101127.00
2022-09-12T15:13:30.816Z,101119.63
2022-09-12T15:16:00.853Z,101133.03
2022-09-12T15:18:29.118Z,101120.69
2022-09-12T15:21:01.997Z,101122.47
2022-09-12T15:23:40.024Z,101119.91
2022-09-12T15:26:09.802Z,101117.06
2022-09-12T15:28:36.724Z,101125.81
2022-09-12T15:31:30.367Z,101129.66
2022-09-12T15:34:01.032Z,101124.53
2022-09-12T15:36:28.777Z,101125.66
2022-09-12T15:38:55.708Z,101125.19
2022-09-12T15:41:32.872Z,101118.25
2022-09-12T15:44:24.893Z,101121.22
2022-09-12T15:46:51.734Z,101110.59
2022-09-12T15:49:19.057Z,101114.91
2022-09-12T15:51:46.646Z,101121.66
2022-09-12T15:54:21.404Z,101115.53
2022-09-12T15:56:49.328Z,101110.34
2022-09-12T15:59:16.301Z,101111.63
2022-09-12T16:01:43.276Z,101112.19
2022-09-12T16:04:27.298Z,101118.13
2022-09-12T16:06:55.775Z,101113.94
2022-09-12T16:09:24.140Z,101107.78
2022-09-12T16:11:51.097Z,101101.63
2022-09-12T16:14:19.529Z,101103.69
2022-09-12T16:16:54.140Z,101102.53
2022-09-12T16:19:21.404Z,101101.19
2022-09-12T16:21:49.099Z,101102.53
2022-09-12T16:24:16.165Z,101098.47
2022-09-12T16:26:43.402Z,101108.22
2022-09-12T16:29:12.920Z,101095.94
2022-09-12T16:31:40.034Z,101096.88
2022-09-12T16:34:07.357Z,101084.88
2022-09-12T16:36:34.656Z,101100.25
2022-09-12T16:39:01.553Z,101095.72
2022-09-12T16:41:28.646Z,101093.09
2022-09-12T16:44:01.708Z,101090.78
2022-09-12T16:46:29.041Z,101094.44
2022-09-12T16:48:58.261Z,101086.38
2022-09-12T16:51:32.699Z,101069.59
2022-09-12T16:53:59.635Z,101076.59
2022-09-12T16:56:26.770Z,101079.25
2022-09-12T16:58:54.556Z,101075.84
2022-09-12T17:01:26.290Z,101080.91
2022-09-12T17:03:56.569Z,101073.75
2022-09-12T17:06:25.312Z,101074.16
2022-09-12T17:08:54.518Z,101075.06
2022-09-12T17:11:26.638Z,101063.41
2022-09-12T17:14:05.831Z,101065.44
2022-09-12T17:16:40.091Z,101066.97
2022-09-12T17:19:08.509Z,101060.09
2022-09-12T17:21:36.565Z,101054.56
2022-09-12T17:24:03.791Z,101056.56
2022-09-12T17:26:30.873Z,101055.16
2022-09-12T17:28:57.909Z,101064.75
2022-09-12T17:31:24.819Z,101059.47
2022-09-12T17:33:57.094Z,101054.13
2022-09-12T17:36:24.204Z,101067.31
2022-09-12T17:38:51.723Z,101057.06
2022-09-12T17:41:23.087Z,101057.75
2022-09-12T17:43:56.794Z,101065.50
2022-09-12T17:46:31.038Z,101066.50
2022-09-12T17:49:00.208Z,101075.13
2022-09-12T17:51:30.673Z,101066.53
2022-09-12T17:54:01.497Z,101065.09
2022-09-12T17:56:31.514Z,101061.16
2022-09-12T17:59:24.883Z,101073.00
2022-09-12T18:02:10.205Z,101073.94
2022-09-12T18:04:37.362Z,101081.72
2022-09-12T18:07:05.065Z,101077.81
2022-09-12T18:09:32.103Z,101083.63
2022-09-12T18:11:59.559Z,101084.56
2022-09-12T18:14:28.297Z,101086.00
2022-09-12T18:16:57.209Z,101079.56
2022-09-12T18:19:24.803Z,101088.88
2022-09-12T18:21:51.956Z,101087.91
2022-09-12T18:24:19.086Z,101090.72
2022-09-12T18:26:46.272Z,101084.78
2022-09-12T18:29:16.727Z,101092.47
2022-09-12T18:31:45.138Z,101083.63
2022-09-12T18:34:13.771Z,101078.53
2022-09-12T18:36:47.615Z,101082.38
2022-09-12T18:39:18.028Z,101081.38
2022-09-12T18:41:44.866Z,101078.97
2022-09-12T18:44:12.446Z,101083.13
2022-09-12T18:46:39.629Z,101079.34
2022-09-12T18:49:07.764Z,101091.34
2022-09-12T18:51:36.866Z,101082.44
2022-09-12T18:54:12.521Z,101076.00
2022-09-12T18:56:41.296Z,101079.53
2022-09-12T18:59:10.298Z,101076.31
2022-09-12T19:01:38.462Z,101077.19
2022-09-12T19:04:07.750Z,101077.22
2022-09-12T19:06:38.821Z,101078.34
2022-09-12T19:09:08.315Z,101068.63
2022-09-12T19:11:38.357Z,101060.00
2022-09-12T19:14:06.584Z,101066.78
2022-09-12T19:16:33.774Z,101055.44
2022-09-12T19:19:02.439Z,101038.97
2022-09-12T19:21:31.202Z,101050.91
2022-09-12T19:24:02.330Z,101049.59
2022-09-12T19:26:29.579Z,101058.31
2022-09-12T19:28:57.187Z,101056.97
2022-09-12T19:31:25.512Z,101056.47
2022-09-12T19:33:52.879Z,101053.50
2022-09-12T19:36:43.677Z,101050.28
2022-09-12T19:39:09.767Z,101052.75
2022-09-12T19:41:36.862Z,101050.59
2022-09-12T19:44:04.573Z,101040.06
2022-09-12T19:46:31.780Z,101042.25
2022-09-12T19:49:00.235Z,101049.31
2022-09-12T19:51:27.560Z,101047.97
2022-09-12T19:53:54.503Z,101048.25
2022-09-12T19:56:21.767Z,101046.59
2022-09-12T19:58:55.695Z,101047.44
2022-09-12T20:01:27.907Z,101042.03
2022-09-12T20:04:20.779Z,101035.53
2022-09-12T20:06:51.020Z,101042.03
2022-09-12T20:09:18.383Z,101030.13
2022-09-12T20:11:45.205Z,101035.00
2022-09-12T20:14:12.172Z,101036.31
2022-09-12T20:16:39.487Z,101035.25
2022-09-12T20:19:08.365Z,101033.09
2022-09-12T20:21:36.967Z,101031.72
2022-09-12T20:24:11.864Z,101024.69
2022-09-12T20:26:40.227Z,101036.31
2022-09-12T20:29:08.586Z,101038.19
2022-09-12T20:31:38.442Z,101027.88
2022-09-12T20:34:06.927Z,101035.19
2022-09-12T20:36:34.511Z,101023.00
2022-09-12T20:39:02.632Z,101030.56
2022-09-12T20:41:33.316Z,101024.63
2022-09-12T20:44:00.553Z,101021.91
2022-09-12T20:46:28.928Z,101024.88
2022-09-12T20:48:56.314Z,101012.44
2022-09-12T20:51:27.159Z,101012.41
2022-09-12T20:54:05.761Z,101023.47
2022-09-12T20:56:35.768Z,101024.56
2022-09-12T20:59:03.873Z,101023.72
2022-09-12T21:01:31.851Z,101019.66
2022-09-12T21:04:01.111Z,101011.25
2022-09-12T21:06:28.469Z,101015.28
2022-09-12T21:09:00.616Z,101016.63
2022-09-12T21:11:29.222Z,101012.84
2022-09-12T21:13:56.340Z,101014.44
2022-09-12T21:16:23.783Z,101011.19
2022-09-12T21:18:58.764Z,101009.28
2022-09-12T21:21:26.828Z,101014.41
2022-09-12T21:23:57.967Z,101012.75
2022-09-12T21:26:24.800Z,101020.03
2022-09-12T21:28:52.049Z,101008.13
2022-09-12T21:31:18.922Z,101004.59
2022-09-12T21:33:46.131Z,101008.06
2022-09-12T21:36:13.011Z,101008.88
2022-09-12T21:38:39.839Z,101003.72
2022-09-12T21:41:13.859Z,100999.13
2022-09-12T21:43:42.362Z,101001.00
2022-09-12T21:46:10.277Z,101003.41
2022-09-12T21:48:37.524Z,100999.59
2022-09-12T21:51:04.831Z,100996.88
2022-09-12T21:53:32.354Z,100998.22
2022-09-12T21:56:08.682Z,100993.59
2022-09-12T21:58:37.098Z,100993.88
2022-09-12T22:01:05.734Z,100984.94
2022-09-12T22:03:32.937Z,100983.31
2022-09-12T22:06:02.153Z,100989.22
2022-09-12T22:08:31.095Z,100998.66
2022-09-12T22:11:04.678Z,100987.56
2022-09-12T22:13:32.296Z,100984.84
2022-09-12T22:16:03.184Z,100985.91
2022-09-12T22:18:33.965Z,100981.25
2022-09-12T22:21:03.541Z,100987.19
2022-09-12T22:23:49.998Z,100974.22
2022-09-12T22:26:17.620Z,100968.53
2022-09-12T22:28:44.879Z,100956.66
2022-09-12T22:31:16.303Z,100961.22
2022-09-12T22:33:43.882Z,100959.03
2022-09-12T22:36:11.561Z,100955.50
2022-09-12T22:38:38.857Z,100957.09
2022-09-12T22:41:09.234Z,100951.97
2022-09-12T22:43:37.265Z,100948.72
2022-09-12T22:46:15.201Z,100944.66
2022-09-12T22:48:42.822Z,100940.56
2022-09-12T22:51:10.874Z,100933.00
2022-09-12T22:53:38.098Z,100930.31
2022-09-12T22:56:06.182Z,100923.31
2022-09-12T22:58:37.212Z,100923.56
2022-09-12T23:01:07.972Z,100914.94
2022-09-12T23:03:35.611Z,100908.19
2022-09-12T23:06:03.781Z,100897.09
2022-09-12T23:08:31.011Z,100898.19
2022-09-12T23:11:11.382Z,100903.31
2022-09-12T23:13:39.127Z,100906.22
2022-09-12T23:16:07.937Z,100898.41
2022-09-12T23:18:36.405Z,100894.88
2022-09-12T23:21:07.239Z,100888.41
2022-09-12T23:23:34.798Z,100896.72
2022-09-12T23:26:15.882Z,100901.59
2022-09-12T23:28:52.901Z,100891.59
2022-09-12T23:31:21.799Z,100899.69
2022-09-12T23:33:50.021Z,100902.38
2022-09-12T23:36:16.852Z,100901.00
2022-09-12T23:38:48.076Z,100901.56
2022-09-12T23:41:16.781Z,100886.75
2022-09-12T23:43:45.446Z,100885.63
2022-09-12T23:46:14.127Z,100888.31
2022-09-12T23:48:42.365Z,100886.44
2022-09-12T23:51:10.409Z,100876.75
2022-09-12T23:53:38.245Z,100880.50
2022-09-12T23:56:06.146Z,100878.88
2022-09-12T23:58:33.249Z,100880.75
